createdAt,value
2023-03-25T00:00:24.692Z,13.85
2023-03-25T00:02:52.860Z,10.45
2023-03-25T00:05:22.094Z,9.70
2023-03-25T00:07:52.209Z,7.55
2023-03-25T00:10:20.229Z,8.85
2023-03-25T00:12:48.461Z,13.57
2023-03-25T00:15:16.570Z,7.35
2023-03-25T00:17:44.767Z,6.47
2023-03-25T00:20:12.658Z,11.13
2023-03-25T00:22:43.990Z,5.43
2023-03-25T00:25:17.779Z,7.53
2023-03-25T00:27:46.791Z,8.43
2023-03-25T00:30:16.002Z,8.88
2023-03-25T00:32:45.987Z,12.00
2023-03-25T00:35:19.376Z,7.43
2023-03-25T00:38:00.282Z,6.97
2023-03-25T00:40:35.044Z,5.97
2023-03-25T00:43:05.964Z,6.25
2023-03-25T00:45:34.524Z,10.50
2023-03-25T00:48:03.532Z,6.68
2023-03-25T00:50:31.975Z,11.20
2023-03-25T00:52:59.393Z,8.95
2023-03-25T00:55:26.775Z,9.10
2023-03-25T00:57:54.148Z,7.43
2023-03-25T01:00:21.726Z,8.18
2023-03-25T01:02:53.789Z,7.22
2023-03-25T01:07:49.669Z,8.80
2023-03-25T01:10:17.341Z,12.77
2023-03-25T01:12:44.721Z,11.50
2023-03-25T01:15:12.393Z,10.00
2023-03-25T01:17:41.229Z,7.55
2023-03-25T01:20:10.022Z,13.80
2023-03-25T01:22:37.686Z,13.63
2023-03-25T01:25:05.516Z,13.52
2023-03-25T01:27:32.891Z,7.07
2023-03-25T01:30:00.445Z,7.18
2023-03-25T01:32:29.483Z,13.05
2023-03-25T01:34:57.323Z,9.35
2023-03-25T01:37:25.740Z,13.15
2023-03-25T01:39:53.509Z,8.93
2023-03-25T01:42:21.245Z,9.77
2023-03-25T01:44:49.315Z,8.82
2023-03-25T01:47:17.359Z,11.98
2023-03-25T01:49:46.758Z,8.00
2023-03-25T01:52:21.296Z,8.07
2023-03-25T01:54:52.331Z,10.35
2023-03-25T01:57:23.568Z,9.93
2023-03-25T01:59:53.742Z,15.35
2023-03-25T02:02:25.175Z,11.40
2023-03-25T02:05:03.811Z,16.10
2023-03-25T02:07:34.504Z,8.13
2023-03-25T02:10:06.841Z,13.65
2023-03-25T02:12:34.460Z,11.02
2023-03-25T02:15:05.074Z,10.50
2023-03-25T02:18:19.859Z,18.55
2023-03-25T02:21:46.304Z,13.88
2023-03-25T02:24:35.491Z,11.20
2023-03-25T02:27:45.862Z,15.60
2023-03-25T02:30:35.354Z,13.30
2023-03-25T02:33:29.937Z,11.68
2023-03-25T02:36:39.755Z,15.38
2023-03-25T02:39:17.834Z,8.07
2023-03-25T02:42:16.637Z,8.60
2023-03-25T02:45:06.591Z,11.48
2023-03-25T02:47:37.033Z,11.60
2023-03-25T02:50:10.205Z,9.88
2023-03-25T02:52:47.337Z,10.23
2023-03-25T02:55:18.584Z,10.90
2023-03-25T02:57:49.933Z,7.03
2023-03-25T03:00:22.100Z,14.07
2023-03-25T03:03:01.871Z,11.35
2023-03-25T03:05:38.012Z,9.35
2023-03-25T03:08:29.857Z,11.98
2023-03-25T03:11:06.861Z,7.80
2023-03-25T03:13:55.534Z,16.45
2023-03-25T03:16:31.842Z,9.35
2023-03-25T03:19:13.874Z,9.73
2023-03-25T03:21:46.290Z,16.50
2023-03-25T03:24:27.741Z,9.02
2023-03-25T03:27:23.826Z,11.88
2023-03-25T03:29:59.321Z,7.85
2023-03-25T03:32:45.792Z,11.95
2023-03-25T03:35:18.633Z,14.45
2023-03-25T03:37:56.446Z,10.45
2023-03-25T03:40:26.994Z,11.35
2023-03-25T03:42:57.067Z,13.32
2023-03-25T03:45:36.963Z,13.18
2023-03-25T03:48:10.455Z,10.75
2023-03-25T03:50:44.680Z,7.63
2023-03-25T03:53:23.219Z,10.95
2023-03-25T03:55:58.118Z,8.95
2023-03-25T03:58:31.512Z,9.90
2023-03-25T04:01:15.067Z,11.48
2023-03-25T04:03:53.991Z,13.30
2023-03-25T04:06:35.447Z,14.25
2023-03-25T04:09:27.664Z,11.05
2023-03-25T04:12:02.971Z,11.75
2023-03-25T04:14:32.655Z,11.38
2023-03-25T04:17:00.060Z,11.30
2023-03-25T04:19:27.843Z,17.92
2023-03-25T04:21:55.345Z,10.35
2023-03-25T04:24:23.991Z,10.55
2023-03-25T04:26:53.154Z,12.75
2023-03-25T04:29:20.600Z,13.93
2023-03-25T04:31:50.443Z,14.02
2023-03-25T04:34:20.586Z,8.65
2023-03-25T04:36:50.375Z,11.85
2023-03-25T04:39:18.461Z,9.88
2023-03-25T04:41:45.888Z,10.00
2023-03-25T04:44:13.436Z,8.98
2023-03-25T04:46:41.337Z,16.05
2023-03-25T04:49:19.171Z,13.48
2023-03-25T04:51:51.651Z,13.57
2023-03-25T04:54:23.498Z,13.05
2023-03-25T04:56:52.235Z,12.75
2023-03-25T04:59:21.350Z,12.05
2023-03-25T05:01:49.963Z,15.27
2023-03-25T05:04:18.349Z,9.60
2023-03-25T05:06:47.850Z,18.73
2023-03-25T05:09:19.190Z,13.73
2023-03-25T05:11:47.059Z,11.77
2023-03-25T05:14:16.674Z,11.13
2023-03-25T05:16:45.328Z,15.27
2023-03-25T05:19:14.814Z,16.63
2023-03-25T05:21:42.466Z,16.40
2023-03-25T05:24:13.537Z,12.63
2023-03-25T05:26:42.199Z,14.70
2023-03-25T05:29:14.836Z,13.63
2023-03-25T05:31:45.421Z,14.20
2023-03-25T05:34:14.705Z,14.85
2023-03-25T05:36:42.549Z,15.95
2023-03-25T05:39:10.982Z,12.85
2023-03-25T05:41:41.703Z,13.43
2023-03-25T05:44:10.406Z,15.77
2023-03-25T05:46:37.828Z,14.45
2023-03-25T05:49:05.210Z,14.55
2023-03-25T05:51:37.536Z,13.43
2023-03-25T05:54:11.489Z,15.00
2023-03-25T05:56:40.303Z,12.10
2023-03-25T05:59:09.023Z,11.52
2023-03-25T06:01:43.527Z,14.70
2023-03-25T06:04:13.366Z,16.20
2023-03-25T06:06:41.442Z,11.95
2023-03-25T06:09:10.229Z,16.27
2023-03-25T06:11:40.268Z,17.27
2023-03-25T06:14:07.844Z,15.75
2023-03-25T06:16:35.901Z,27.38
2023-03-25T06:19:04.041Z,11.32
2023-03-25T06:21:34.824Z,11.82
2023-03-25T06:24:02.736Z,11.60
2023-03-25T06:26:30.652Z,12.95
2023-03-25T06:28:58.584Z,9.35
2023-03-25T06:31:26.999Z,13.63
2023-03-25T06:33:56.291Z,13.43
2023-03-25T06:36:25.790Z,11.30
2023-03-25T06:38:54.100Z,10.68
2023-03-25T06:41:25.903Z,14.73
2023-03-25T06:44:11.544Z,8.45
2023-03-25T06:46:47.797Z,8.85
2023-03-25T06:49:15.411Z,8.65
2023-03-25T06:51:42.865Z,8.20
2023-03-25T06:54:10.523Z,9.85
2023-03-25T06:56:38.141Z,8.80
2023-03-25T06:59:06.046Z,16.33
2023-03-25T07:01:33.591Z,8.60
2023-03-25T07:04:01.081Z,9.13
2023-03-25T07:06:28.575Z,11.38
2023-03-25T07:08:55.930Z,7.57
2023-03-25T07:11:27.425Z,11.98
2023-03-25T07:13:55.275Z,11.57
2023-03-25T07:16:23.586Z,9.80
2023-03-25T07:18:51.555Z,7.45
2023-03-25T07:21:19.471Z,8.38
2023-03-25T07:23:46.924Z,13.18
2023-03-25T07:26:14.494Z,11.68
2023-03-25T07:28:42.498Z,8.30
2023-03-25T07:31:12.612Z,8.23
2023-03-25T07:33:40.737Z,18.63
2023-03-25T07:36:10.748Z,10.25
2023-03-25T07:38:38.607Z,10.60
2023-03-25T07:41:09.400Z,10.38
2023-03-25T07:43:37.314Z,12.15
2023-03-25T07:46:26.321Z,13.20
2023-03-25T07:48:53.734Z,11.68
2023-03-25T07:51:21.390Z,8.32
2023-03-25T07:53:48.824Z,11.25
2023-03-25T07:56:16.437Z,8.90
2023-03-25T07:58:44.573Z,10.75
2023-03-25T08:01:12.024Z,26.27
2023-03-25T08:03:40.047Z,15.70
2023-03-25T08:06:09.278Z,16.10
2023-03-25T08:08:36.739Z,11.10
2023-03-25T08:11:04.673Z,13.15
2023-03-25T08:13:32.244Z,9.95
2023-03-25T08:15:59.883Z,16.05
2023-03-25T08:18:27.344Z,15.40
2023-03-25T08:20:54.802Z,7.60
2023-03-25T08:23:22.545Z,13.02
2023-03-25T08:25:51.331Z,14.38
2023-03-25T08:28:23.559Z,12.20
2023-03-25T08:30:54.930Z,6.50
2023-03-25T08:33:27.293Z,13.98
2023-03-25T08:35:57.925Z,11.98
2023-03-25T08:38:25.591Z,14.23
2023-03-25T08:40:53.031Z,12.00
2023-03-25T08:43:20.431Z,12.52
2023-03-25T08:45:47.978Z,11.10
2023-03-25T08:48:18.379Z,12.70
2023-03-25T08:50:45.822Z,9.45
2023-03-25T08:53:13.216Z,13.20
2023-03-25T08:55:40.626Z,16.20
2023-03-25T08:58:08.387Z,13.93
2023-03-25T09:00:37.792Z,13.20
2023-03-25T09:03:06.373Z,13.15
2023-03-25T09:05:33.880Z,12.25
2023-03-25T09:08:02.118Z,11.95
2023-03-25T09:10:29.472Z,16.05
2023-03-25T09:12:56.882Z,14.82
2023-03-25T09:15:24.325Z,15.27
2023-03-25T09:17:51.839Z,16.58
2023-03-25T09:20:19.496Z,20.00
2023-03-25T09:22:46.906Z,18.77
2023-03-25T09:25:14.307Z,18.90
2023-03-25T09:27:41.695Z,8.90
2023-03-25T09:30:10.252Z,10.48
2023-03-25T09:32:37.667Z,12.23
2023-03-25T09:35:05.471Z,11.13
2023-03-25T09:37:32.916Z,10.93
2023-03-25T09:40:00.337Z,17.17
2023-03-25T09:42:49.820Z,15.85
2023-03-25T09:45:29.095Z,17.70
2023-03-25T09:48:31.980Z,15.65
2023-03-25T09:51:10.618Z,11.35
2023-03-25T09:53:49.838Z,7.85
2023-03-25T09:56:21.483Z,13.73
2023-03-25T09:58:56.545Z,14.35
2023-03-25T10:01:29.747Z,11.27
2023-03-25T10:04:24.369Z,15.52
2023-03-25T10:07:13.441Z,10.50
2023-03-25T10:09:40.796Z,20.02
2023-03-25T10:12:37.095Z,7.80
2023-03-25T10:15:33.875Z,11.27
2023-03-25T10:18:28.164Z,10.63
2023-03-25T10:21:07.769Z,11.15
2023-03-25T10:23:42.339Z,8.32
2023-03-25T10:26:31.934Z,8.95
2023-03-25T10:29:07.958Z,11.45
2023-03-25T10:31:39.536Z,15.15
2023-03-25T10:34:19.039Z,13.80
2023-03-25T10:36:54.979Z,12.07
2023-03-25T10:39:23.834Z,10.13
2023-03-25T10:42:19.701Z,9.18
2023-03-25T10:44:48.197Z,8.52
2023-03-25T10:47:19.469Z,10.65
2023-03-25T10:49:49.135Z,6.65
2023-03-25T10:52:17.062Z,20.02
2023-03-25T10:54:55.622Z,6.72
2023-03-25T10:57:28.001Z,9.38
2023-03-25T11:00:30.870Z,13.90
2023-03-25T11:02:58.397Z,18.30
2023-03-25T11:05:29.588Z,8.25
2023-03-25T11:08:14.774Z,6.07
2023-03-25T11:10:57.864Z,10.18
2023-03-25T11:13:27.926Z,10.57
2023-03-25T11:16:01.475Z,12.82
2023-03-25T11:18:34.145Z,15.52
2023-03-25T11:21:06.481Z,8.90
2023-03-25T11:23:49.949Z,15.82
2023-03-25T11:26:27.651Z,6.88
2023-03-25T11:29:22.166Z,17.55
2023-03-25T11:31:58.126Z,11.43
2023-03-25T11:34:26.421Z,15.60
2023-03-25T11:36:55.374Z,10.10
2023-03-25T11:39:23.609Z,9.30
2023-03-25T11:41:52.034Z,11.98
2023-03-25T11:44:31.317Z,4.65
2023-03-25T11:47:07.902Z,7.53
2023-03-25T11:49:38.555Z,6.80
2023-03-25T11:52:08.021Z,5.20
2023-03-25T11:54:36.824Z,4.80
2023-03-25T11:57:10.391Z,6.10
2023-03-25T11:59:44.110Z,9.68
2023-03-25T12:02:20.964Z,5.18
2023-03-25T12:05:13.042Z,7.13
2023-03-25T12:07:49.540Z,4.78
2023-03-25T12:10:34.387Z,1.95
2023-03-25T12:13:09.185Z,3.17
2023-03-25T12:15:41.432Z,1.92
2023-03-25T12:18:43.585Z,4.28
2023-03-25T12:21:24.304Z,1.67
2023-03-25T12:24:28.257Z,5.07
2023-03-25T12:27:33.076Z,5.15
2023-03-25T12:30:06.327Z,7.78
2023-03-25T12:33:09.531Z,4.07
2023-03-25T12:36:06.057Z,7.00
2023-03-25T12:38:36.479Z,4.07
2023-03-25T12:41:18.966Z,6.00
2023-03-25T12:46:37.773Z,5.65
2023-03-25T12:49:20.838Z,10.55
2023-03-25T12:52:19.310Z,6.40
2023-03-25T12:55:07.215Z,16.17
2023-03-25T12:57:49.320Z,4.78
2023-03-25T13:00:26.736Z,4.25
2023-03-25T13:03:26.292Z,6.85
2023-03-25T13:06:09.067Z,6.45
2023-03-25T13:08:45.734Z,4.50
2023-03-25T13:11:18.287Z,5.13
2023-03-25T13:13:47.300Z,8.30
2023-03-25T13:16:19.779Z,14.35
2023-03-25T13:18:52.138Z,4.72
2023-03-25T13:23:56.894Z,2.42
2023-03-25T13:26:29.677Z,12.57
2023-03-25T13:28:59.575Z,3.67
2023-03-25T13:31:41.141Z,4.50
2023-03-25T13:34:19.373Z,6.37
2023-03-25T13:36:56.458Z,2.17
2023-03-25T13:39:30.376Z,5.22
2023-03-25T13:42:08.383Z,5.63
2023-03-25T13:44:41.437Z,4.18
2023-03-25T13:47:21.724Z,9.25
2023-03-25T13:50:03.383Z,4.38
2023-03-25T13:52:39.539Z,9.50
2023-03-25T13:55:21.335Z,2.72
2023-03-25T13:58:17.111Z,8.63
2023-03-25T14:01:12.283Z,6.10
2023-03-25T14:04:02.285Z,4.65
2023-03-25T14:06:44.705Z,5.00
2023-03-25T14:09:28.992Z,12.00
2023-03-25T14:12:16.280Z,4.97
2023-03-25T14:15:16.116Z,5.40
2023-03-25T14:17:46.989Z,3.28
2023-03-25T14:20:25.351Z,7.22
2023-03-25T14:23:02.807Z,5.97
2023-03-25T14:25:39.990Z,7.82
2023-03-25T14:28:12.326Z,4.60
2023-03-25T14:33:12.940Z,6.95
2023-03-25T14:35:41.812Z,7.05
2023-03-25T14:38:09.252Z,3.03
2023-03-25T14:40:50.817Z,3.92
2023-03-25T14:43:53.106Z,9.88
2023-03-25T14:46:26.089Z,10.75
2023-03-25T14:49:18.267Z,4.25
2023-03-25T14:51:51.566Z,8.65
2023-03-25T14:54:32.291Z,5.30
2023-03-25T14:57:07.862Z,4.72
2023-03-25T14:59:43.685Z,7.35
2023-03-25T15:02:22.516Z,6.50
2023-03-25T15:05:09.915Z,8.15
2023-03-25T15:07:51.651Z,6.50
2023-03-25T15:10:40.553Z,3.37
2023-03-25T15:13:27.613Z,3.47
2023-03-25T15:16:16.492Z,4.65
2023-03-25T15:18:43.997Z,10.75
2023-03-25T15:21:12.221Z,6.68
2023-03-25T15:23:47.541Z,2.97
2023-03-25T15:26:28.124Z,4.55
2023-03-25T15:28:58.556Z,2.55
2023-03-25T15:32:00.153Z,5.70
2023-03-25T15:35:06.313Z,4.50
2023-03-25T15:37:52.680Z,3.97
2023-03-25T15:40:39.456Z,3.03
2023-03-25T15:43:21.583Z,6.43
2023-03-25T15:46:21.007Z,2.03
2023-03-25T15:49:05.920Z,3.10
2023-03-25T15:51:43.373Z,10.25
2023-03-25T15:55:00.729Z,7.13
2023-03-25T15:57:48.588Z,2.95
2023-03-25T16:00:37.433Z,4.28
2023-03-25T16:03:15.787Z,2.08
2023-03-25T16:05:52.200Z,5.60
2023-03-25T16:08:32.708Z,1.38
2023-03-25T16:11:20.653Z,4.55
2023-03-25T16:14:00.553Z,3.45
2023-03-25T16:16:28.690Z,2.88
2023-03-25T16:18:56.159Z,6.78
2023-03-25T16:21:23.624Z,1.95
2023-03-25T16:23:56.789Z,1.63
2023-03-25T16:26:46.015Z,6.72
2023-03-25T16:29:23.044Z,4.20
2023-03-25T16:31:59.861Z,1.13
2023-03-25T16:34:34.150Z,4.32
2023-03-25T16:37:02.640Z,2.00
2023-03-25T16:39:34.285Z,1.27
2023-03-25T16:42:06.941Z,4.47
2023-03-25T16:44:35.048Z,6.68
2023-03-25T16:47:02.852Z,1.77
2023-03-25T16:49:33.253Z,2.83
2023-03-25T16:52:11.833Z,4.93
2023-03-25T16:54:51.124Z,6.80
2023-03-25T16:57:32.502Z,6.57
2023-03-25T17:00:14.213Z,3.95
2023-03-25T17:02:41.923Z,6.00
2023-03-25T17:05:29.750Z,3.95
2023-03-25T17:08:07.787Z,1.17
2023-03-25T17:10:51.210Z,12.35
2023-03-25T17:13:31.927Z,2.58
2023-03-25T17:15:59.617Z,12.95
2023-03-25T17:18:31.224Z,2.80
2023-03-25T17:21:02.767Z,7.07
2023-03-25T17:23:43.925Z,6.03
2023-03-25T17:26:22.723Z,5.55
2023-03-25T17:29:01.988Z,7.05
2023-03-25T17:31:41.053Z,5.88
2023-03-25T17:34:19.976Z,5.47
2023-03-25T17:36:49.071Z,9.52
2023-03-25T17:39:48.886Z,4.80
2023-03-25T17:42:24.576Z,6.40
2023-03-25T17:44:53.425Z,10.13
2023-03-25T17:47:21.805Z,11.52
2023-03-25T17:49:51.331Z,7.93
2023-03-25T17:52:20.307Z,7.07
2023-03-25T17:54:47.805Z,5.32
2023-03-25T17:57:18.455Z,6.68
2023-03-25T17:59:47.197Z,14.73
2023-03-25T18:02:16.810Z,9.13
2023-03-25T18:04:44.515Z,10.55
2023-03-25T18:07:12.750Z,8.90
2023-03-25T18:09:41.344Z,6.45
2023-03-25T18:12:08.796Z,12.88
2023-03-25T18:14:36.300Z,12.10
2023-03-25T18:17:04.545Z,10.93
2023-03-25T18:19:32.174Z,13.70
2023-03-25T18:22:13.812Z,8.23
2023-03-25T18:24:47.004Z,8.60
2023-03-25T18:27:14.749Z,9.15
2023-03-25T18:29:42.217Z,8.85
2023-03-25T18:32:09.731Z,7.82
2023-03-25T18:34:37.080Z,16.10
2023-03-25T18:37:04.666Z,8.20
2023-03-25T18:39:32.712Z,9.35
2023-03-25T18:42:00.108Z,10.65
2023-03-25T18:44:28.469Z,6.80
2023-03-25T18:46:56.144Z,12.32
2023-03-25T18:49:23.725Z,8.85
2023-03-25T18:51:53.433Z,6.55
2023-03-25T18:54:20.912Z,15.13
2023-03-25T18:56:50.339Z,20.20
2023-03-25T18:59:21.945Z,22.60
2023-03-25T19:01:49.372Z,21.33
2023-03-25T19:04:18.135Z,31.83
2023-03-25T19:06:45.618Z,34.50
2023-03-25T19:09:19.580Z,27.60
2023-03-25T19:11:47.415Z,26.75
2023-03-25T19:14:14.829Z,38.00
2023-03-25T19:16:48.134Z,29.35
2023-03-25T19:19:21.497Z,36.17
2023-03-25T19:21:50.294Z,26.77
2023-03-25T19:24:17.690Z,29.70
2023-03-25T19:26:45.488Z,28.52
2023-03-25T19:29:12.924Z,25.77
2023-03-25T19:31:42.432Z,29.60
2023-03-25T19:34:09.829Z,25.52
2023-03-25T19:36:37.213Z,26.85
2023-03-25T19:39:05.945Z,31.80
2023-03-25T19:41:34.831Z,24.45
2023-03-25T19:44:03.152Z,26.40
2023-03-25T19:46:31.814Z,29.33
2023-03-25T19:48:59.459Z,23.50
2023-03-25T19:51:27.056Z,34.97
2023-03-25T19:53:54.988Z,25.52
2023-03-25T19:56:22.532Z,26.33
2023-03-25T19:58:49.903Z,24.23
2023-03-25T20:01:18.119Z,23.33
2023-03-25T20:03:45.776Z,21.92
2023-03-25T20:06:14.057Z,24.33
2023-03-25T20:08:41.465Z,25.25
2023-03-25T20:11:10.655Z,21.70
2023-03-25T20:13:38.405Z,23.23
2023-03-25T20:16:06.664Z,20.65
2023-03-25T20:18:34.677Z,20.70
2023-03-25T20:21:02.030Z,19.83
2023-03-25T20:23:29.513Z,23.17
2023-03-25T20:25:56.853Z,29.80
2023-03-25T20:28:24.266Z,23.80
2023-03-25T20:30:52.415Z,22.40
2023-03-25T20:33:19.936Z,22.73
2023-03-25T20:35:47.462Z,22.73
2023-03-25T20:38:14.887Z,22.30
2023-03-25T20:40:45.087Z,23.10
2023-03-25T20:43:14.352Z,22.38
2023-03-25T20:45:42.883Z,23.60
2023-03-25T20:48:10.468Z,19.92
2023-03-25T20:50:38.232Z,22.70
2023-03-25T20:53:05.834Z,23.55
2023-03-25T20:55:33.307Z,22.15
2023-03-25T20:58:00.865Z,23.40
2023-03-25T21:00:28.368Z,22.48
2023-03-25T21:02:57.572Z,23.65
2023-03-25T21:05:27.260Z,24.10
2023-03-25T21:07:55.001Z,28.20
2023-03-25T21:10:22.404Z,18.77
2023-03-25T21:12:50.015Z,23.27
2023-03-25T21:15:18.128Z,22.83
2023-03-25T21:17:45.597Z,21.45
2023-03-25T21:20:13.174Z,23.00
2023-03-25T21:22:43.152Z,20.95
2023-03-25T21:25:13.124Z,22.42
2023-03-25T21:27:42.363Z,24.08
2023-03-25T21:30:11.234Z,23.73
2023-03-25T21:32:39.300Z,24.35
2023-03-25T21:35:07.979Z,24.13
2023-03-25T21:37:38.602Z,23.35
2023-03-25T21:40:10.030Z,20.85
2023-03-25T21:42:38.783Z,20.85
2023-03-25T21:45:08.098Z,22.23
2023-03-25T21:47:36.873Z,24.80
2023-03-25T21:50:07.293Z,22.77
2023-03-25T21:52:35.053Z,22.15
2023-03-25T21:55:03.867Z,21.42
2023-03-25T21:57:31.232Z,18.50
2023-03-25T21:59:58.635Z,24.85
2023-03-25T22:02:28.871Z,23.08
2023-03-25T22:04:56.201Z,21.58
2023-03-25T22:07:23.570Z,19.38
2023-03-25T22:09:51.123Z,21.17
2023-03-25T22:12:18.517Z,19.95
2023-03-25T22:14:46.188Z,25.23
2023-03-25T22:17:13.747Z,22.77
2023-03-25T22:19:42.447Z,25.33
2023-03-25T22:22:12.467Z,25.42
2023-03-25T22:24:43.340Z,22.17
2023-03-25T22:27:10.906Z,20.25
2023-03-25T22:29:40.345Z,24.15
2023-03-25T22:32:08.658Z,23.25
2023-03-25T22:34:36.862Z,21.30
2023-03-25T22:37:04.505Z,24.55
2023-03-25T22:39:32.027Z,20.13
2023-03-25T22:41:59.722Z,21.23
2023-03-25T22:44:27.226Z,24.27
2023-03-25T22:46:55.238Z,23.45
2023-03-25T22:49:25.612Z,17.52
2023-03-25T22:51:54.113Z,23.08
2023-03-25T22:54:22.291Z,21.77
2023-03-25T22:56:49.723Z,18.38
2023-03-25T22:59:17.142Z,21.10
2023-03-25T23:01:44.669Z,21.90
2023-03-25T23:04:12.698Z,19.95
2023-03-25T23:06:41.719Z,23.30
2023-03-25T23:09:10.317Z,20.27
2023-03-25T23:11:38.615Z,20.73
2023-03-25T23:14:10.598Z,31.83
2023-03-25T23:16:39.023Z,24.05
2023-03-25T23:19:09.340Z,21.80
2023-03-25T23:21:36.700Z,20.55
2023-03-25T23:24:04.653Z,20.77
2023-03-25T23:26:36.582Z,21.58
2023-03-25T23:29:06.316Z,19.40
2023-03-25T23:31:34.844Z,21.65
2023-03-25T23:34:06.350Z,22.88
2023-03-25T23:36:36.302Z,23.63
2023-03-25T23:39:10.270Z,19.35
2023-03-25T23:41:37.821Z,24.40
2023-03-25T23:44:06.127Z,27.27
2023-03-25T23:46:34.893Z,20.90
2023-03-25T23:49:02.781Z,20.17
2023-03-25T23:51:37.792Z,22.52
2023-03-25T23:54:07.331Z,20.42
2023-03-25T23:56:35.297Z,23.77
2023-03-25T23:59:03.605Z,20.80
